Time;durP1;ratioP1;P1;durP2;ratioP2;P2;SDS_P1;SDS_P2;PMS_P1;PMS_P2;Temp;Humidity;BMP_temperature;BMP_pressure;BME280_temperature;BME280_humidity;BME280_pressure;Samples;Min_cycle;Max_cycle;Signal;HPM_P1;HPM_P2
2022/12/10 00:00:53;;;;;;;62.50;33.23;;;-0.30;92.60;;;;;;4994698;28;20546;-87
2022/12/10 00:03:18;;;;;;;66.43;35.10;;;-0.40;92.60;;;;;;4993625;28;20185;-88
2022/12/10 00:05:44;;;;;;;56.13;31.70;;;-0.40;92.60;;;;;;4994586;28;20721;-88
2022/12/10 00:08:09;;;;;;;56.07;29.87;;;-0.40;92.70;;;;;;4994485;28;20196;-87
2022/12/10 00:10:39;;;;;;;61.33;33.97;;;-0.40;92.60;;;;;;4994272;28;20201;-88
2022/12/10 00:13:04;;;;;;;54.07;30.83;;;-0.40;92.50;;;;;;4994132;28;20199;-88
2022/12/10 00:15:30;;;;;;;53.57;32.20;;;-0.40;92.50;;;;;;4994544;28;20199;-88
2022/12/10 00:17:55;;;;;;;55.97;30.03;;;-0.30;92.40;;;;;;4994466;28;20194;-88
2022/12/10 00:20:21;;;;;;;58.40;31.20;;;-0.30;92.40;;;;;;4992901;28;20268;-88
2022/12/10 00:22:47;;;;;;;61.43;33.50;;;-0.40;92.40;;;;;;4994306;28;20263;-88
2022/12/10 00:25:12;;;;;;;61.90;33.80;;;-0.40;92.30;;;;;;4994138;28;20175;-88
2022/12/10 00:27:38;;;;;;;55.53;30.70;;;-0.40;92.30;;;;;;4993087;28;20702;-88
2022/12/10 00:30:04;;;;;;;50.07;30.63;;;-0.40;92.30;;;;;;4992861;28;20174;-88
2022/12/10 00:32:29;;;;;;;49.50;28.33;;;-0.40;92.20;;;;;;4993910;28;20610;-88
2022/12/10 00:34:55;;;;;;;52.97;29.13;;;-0.40;92.10;;;;;;4992922;28;20176;-88
2022/12/10 00:37:20;;;;;;;52.70;32.07;;;-0.30;92.10;;;;;;4994032;28;20198;-88
2022/12/10 00:39:46;;;;;;;71.63;38.70;;;-0.30;92.00;;;;;;4994484;28;20176;-88
2022/12/10 00:42:11;;;;;;;50.33;28.30;;;-0.20;92.20;;;;;;4994470;28;20175;-88
2022/12/10 00:44:37;;;;;;;63.17;34.80;;;-0.20;91.90;;;;;;4993870;28;20186;-88
2022/12/10 00:47:02;;;;;;;49.77;31.63;;;-0.20;91.80;;;;;;4993137;28;20282;-88
2022/12/10 00:49:28;;;;;;;49.00;29.20;;;-0.20;91.70;;;;;;4995561;28;20267;-88
2022/12/10 00:51:53;;;;;;;44.70;25.97;;;-0.20;91.50;;;;;;4995163;28;20254;-89
2022/12/10 00:54:20;;;;;;;42.00;27.07;;;-0.20;91.30;;;;;;4994694;28;20195;-86
2022/12/10 00:56:45;;;;;;;35.57;23.90;;;-0.20;91.30;;;;;;4995093;28;20196;-87
2022/12/10 00:59:11;;;;;;;53.17;30.23;;;-0.20;91.20;;;;;;4995831;28;20179;-87
2022/12/10 01:01:39;;;;;;;46.80;29.00;;;-0.20;91.20;;;;;;4995262;28;20182;-88
2022/12/10 01:04:08;;;;;;;42.53;26.87;;;-0.20;91.30;;;;;;4999776;28;20562;-87
2022/12/10 01:07:00;;;;;;;35.97;23.30;;;-0.20;91.20;;;;;;5001692;28;20284;-88
2022/12/10 01:09:29;;;;;;;40.90;23.73;;;-0.30;90.90;;;;;;4995967;28;20193;-88
2022/12/10 01:11:56;;;;;;;37.27;23.93;;;-0.20;90.70;;;;;;4997705;28;20281;-89
2022/12/10 01:14:25;;;;;;;40.53;24.40;;;-0.20;90.70;;;;;;4997733;28;20242;-88
2022/12/10 01:16:55;;;;;;;48.33;26.87;;;-0.20;90.70;;;;;;4996297;28;20239;-88
2022/12/10 01:19:21;;;;;;;47.90;28.40;;;-0.20;90.70;;;;;;4996422;28;20596;-88
2022/12/10 01:21:54;;;;;;;42.83;27.50;;;-0.20;90.80;;;;;;4996292;28;20179;-88
2022/12/10 01:24:21;;;;;;;51.57;25.67;;;-0.20;90.90;;;;;;4997510;28;20653;-88
2022/12/10 01:26:46;;;;;;;38.87;23.40;;;-0.20;90.90;;;;;;4996062;28;20229;-88
2022/12/10 01:29:12;;;;;;;32.83;21.63;;;-0.20;90.90;;;;;;4996158;28;20261;-88
2022/12/10 01:31:38;;;;;;;41.03;24.20;;;-0.20;90.90;;;;;;4996096;28;20212;-88
2022/12/10 01:34:05;;;;;;;42.03;23.33;;;-0.20;91.00;;;;;;4996054;28;20607;-88
2022/12/10 01:36:37;;;;;;;43.67;27.17;;;-0.20;91.00;;;;;;4995841;28;20198;-88
2022/12/10 01:39:05;;;;;;;34.53;20.63;;;-0.20;91.00;;;;;;4997059;28;20159;-88
2022/12/10 01:41:32;;;;;;;40.00;24.93;;;-0.20;90.70;;;;;;4997040;28;20234;-88
2022/12/10 01:44:01;;;;;;;44.57;26.27;;;-0.20;90.70;;;;;;4995597;28;20231;-89
2022/12/10 01:46:30;;;;;;;44.83;25.43;;;-0.10;90.70;;;;;;4995619;28;20230;-88
2022/12/10 01:48:57;;;;;;;46.37;25.70;;;-0.10;90.80;;;;;;4996835;28;20652;-88
2022/12/10 01:51:25;;;;;;;44.60;27.40;;;-0.10;90.80;;;;;;4995658;28;20184;-88
2022/12/10 01:53:51;;;;;;;42.97;26.83;;;-0.10;90.90;;;;;;4996619;28;20202;-88
2022/12/10 01:56:18;;;;;;;45.07;25.70;;;-0.10;91.00;;;;;;4996993;28;20186;-88
2022/12/10 01:58:45;;;;;;;40.07;26.40;;;-0.10;91.00;;;;;;4995418;28;20193;-88
2022/12/10 02:01:38;;;;;;;48.47;27.70;;;-0.10;91.10;;;;;;4996570;28;20173;-88
2022/12/10 02:04:28;;;;;;;48.30;28.37;;;-0.20;91.10;;;;;;4995236;28;20325;-88
2022/12/10 02:06:59;;;;;;;41.57;23.97;;;-0.20;91.10;;;;;;4996443;28;20214;-88
2022/12/10 02:09:46;;;;;;;44.63;26.67;;;-0.20;91.10;;;;;;4996524;28;20173;-88
2022/12/10 02:12:23;;;;;;;36.53;23.13;;;-0.10;91.10;;;;;;4996266;28;20241;-89
2022/12/10 02:15:12;;;;;;;44.93;26.37;;;-0.20;90.90;;;;;;4994040;28;20172;-88
2022/12/10 02:17:44;;;;;;;43.70;26.00;;;-0.20;90.60;;;;;;4995126;28;20199;-88
2022/12/10 02:20:36;;;;;;;43.83;25.50;;;-0.20;90.50;;;;;;4995058;28;20175;-88
2022/12/10 02:23:06;;;;;;;43.47;26.93;;;-0.20;90.50;;;;;;4995057;28;20202;-88
2022/12/10 02:26:11;;;;;;;37.83;24.80;;;-0.10;90.50;;;;;;4995579;28;20178;-89
2022/12/10 02:29:10;;;;;;;41.43;23.17;;;-0.20;90.50;;;;;;4993347;28;20255;-88
2022/12/10 02:31:39;;;;;;;29.00;18.87;;;-0.10;90.50;;;;;;4994771;28;20187;-88
2022/12/10 02:34:08;;;;;;;32.10;21.87;;;-0.20;90.10;;;;;;4994665;28;20203;-88
2022/12/10 02:36:37;;;;;;;34.60;21.00;;;-0.20;90.00;;;;;;4994747;28;20201;-88
2022/12/10 02:39:05;;;;;;;33.57;22.97;;;-0.20;90.10;;;;;;4995928;28;20181;-89
2022/12/10 02:41:38;;;;;;;34.27;22.43;;;-0.10;90.20;;;;;;4994653;28;20174;-89
2022/12/10 02:44:08;;;;;;;35.33;22.30;;;-0.20;90.00;;;;;;4995789;28;20551;-89
2022/12/10 02:46:36;;;;;;;35.67;23.43;;;-0.20;89.80;;;;;;4994504;28;20226;-88
2022/12/10 02:49:04;;;;;;;34.67;24.63;;;-0.20;89.70;;;;;;4995306;28;20191;-88
2022/12/10 02:51:29;;;;;;;35.80;22.27;;;-0.20;89.70;;;;;;4995672;28;20181;-88
2022/12/10 02:54:03;;;;;;;35.90;23.30;;;-0.20;89.60;;;;;;4994259;28;20207;-88
2022/12/10 02:56:44;;;;;;;33.73;23.27;;;-0.10;89.70;;;;;;4994234;28;20230;-88
2022/12/10 02:59:24;;;;;;;29.90;21.07;;;-0.20;89.80;;;;;;4995823;28;20172;-88
2022/12/10 03:02:14;;;;;;;23.37;16.97;;;-0.20;89.80;;;;;;4994386;28;20172;-88
2022/12/10 03:04:47;;;;;;;28.93;18.07;;;-0.20;89.20;;;;;;4995844;28;20152;-88
2022/12/10 03:07:27;;;;;;;33.40;21.17;;;-0.10;88.60;;;;;;4994188;28;20228;-88
2022/12/10 03:09:58;;;;;;;28.90;18.97;;;-0.10;88.50;;;;;;4995407;28;20171;-88
2022/12/10 03:12:35;;;;;;;30.97;20.47;;;-0.10;88.30;;;;;;4995098;28;20180;-89
2022/12/10 03:15:05;;;;;;;31.77;21.07;;;-0.10;88.10;;;;;;4995214;28;20308;-89
2022/12/10 03:17:32;;;;;;;29.20;19.33;;;-0.10;88.10;;;;;;4994993;28;20689;-88
2022/12/10 03:19:58;;;;;;;25.40;19.40;;;-0.10;88.00;;;;;;4993855;28;20322;-88
2022/12/10 03:22:24;;;;;;;26.67;19.00;;;-0.10;87.90;;;;;;4993836;28;20170;-88
2022/12/10 03:24:51;;;;;;;29.93;20.13;;;0.00;87.90;;;;;;4994891;28;20183;-88
2022/12/10 03:27:20;;;;;;;28.63;19.80;;;-0.10;87.70;;;;;;4993673;28;20302;-88
2022/12/10 03:29:48;;;;;;;28.97;20.30;;;0.00;87.60;;;;;;4995218;28;20696;-89
2022/12/10 03:32:15;;;;;;;26.60;20.20;;;0.00;87.70;;;;;;4994769;28;20175;-89
2022/12/10 03:34:43;;;;;;;29.27;21.07;;;0.00;87.80;;;;;;4995218;28;20200;-88
2022/12/10 03:37:09;;;;;;;27.13;20.63;;;-0.10;87.80;;;;;;4994743;28;20195;-88
2022/12/10 03:39:36;;;;;;;29.73;21.50;;;0.00;87.90;;;;;;4994840;28;20179;-88
2022/12/10 03:42:03;;;;;;;28.77;20.73;;;0.00;87.90;;;;;;4994712;28;20192;-88
2022/12/10 03:44:33;;;;;;;26.10;19.37;;;0.00;87.90;;;;;;4994606;28;20236;-88
2022/12/10 03:47:00;;;;;;;26.13;19.20;;;0.00;87.80;;;;;;4993344;28;20231;-88
2022/12/10 03:49:25;;;;;;;31.10;21.00;;;-0.10;87.60;;;;;;4993485;28;20184;-88
2022/12/10 03:51:51;;;;;;;26.20;19.30;;;0.00;87.70;;;;;;4994489;28;20594;-89
2022/12/10 03:54:17;;;;;;;26.30;20.33;;;0.00;87.70;;;;;;4993131;28;20291;-88
2022/12/10 03:56:42;;;;;;;26.43;19.97;;;0.00;87.80;;;;;;4994712;28;20223;-88
2022/12/10 03:59:08;;;;;;;30.37;20.93;;;0.00;87.40;;;;;;4994527;28;20164;-89
2022/12/10 04:01:33;;;;;;;29.63;21.27;;;0.00;87.70;;;;;;4993073;28;20533;-89
2022/12/10 04:03:59;;;;;;;31.93;21.50;;;0.00;87.80;;;;;;4994257;28;20673;-89
2022/12/10 04:06:25;;;;;;;30.83;23.07;;;0.00;87.90;;;;;;4992935;28;20574;-89
2022/12/10 04:08:52;;;;;;;29.60;22.60;;;0.00;88.00;;;;;;4993033;28;20179;-89
2022/12/10 04:11:18;;;;;;;27.30;21.77;;;0.00;88.20;;;;;;4993288;28;20188;-89
2022/12/10 04:16:29;;;;;;;29.83;22.93;;;0.00;88.30;;;;;;4994058;28;20197;-89
2022/12/10 04:19:04;;;;;;;27.40;20.73;;;0.00;88.30;;;;;;4992928;28;20175;-89
2022/12/10 04:27:10;;;;;;;24.70;19.60;;;0.00;88.20;;;;;;4994348;28;20809;-89
2022/12/10 04:29:36;;;;;;;25.77;20.77;;;0.00;88.10;;;;;;4992794;28;20173;-89
2022/12/10 04:32:01;;;;;;;28.93;21.47;;;0.00;88.00;;;;;;4993978;28;20179;-89
2022/12/10 04:34:27;;;;;;;25.40;20.17;;;0.00;87.70;;;;;;4993812;28;20193;-88
2022/12/10 04:36:52;;;;;;;26.93;20.60;;;0.00;87.50;;;;;;4992121;28;20233;-89
2022/12/10 04:39:18;;;;;;;24.90;19.30;;;0.00;87.40;;;;;;4993728;28;20649;-89
2022/12/10 04:41:45;;;;;;;21.67;17.17;;;0.00;87.60;;;;;;4994371;28;20215;-89
2022/12/10 04:44:11;;;;;;;27.20;18.80;;;0.00;87.30;;;;;;4993028;28;20182;-89
2022/12/10 04:46:37;;;;;;;24.13;19.63;;;0.00;86.90;;;;;;4993858;28;20205;-89
2022/12/10 04:49:04;;;;;;;21.63;17.97;;;0.00;86.60;;;;;;4994043;28;20181;-89
2022/12/10 04:51:30;;;;;;;25.03;18.83;;;0.00;86.50;;;;;;4992576;28;20269;-89
2022/12/10 04:53:56;;;;;;;22.93;18.77;;;0.00;86.40;;;;;;4993672;28;20228;-88
2022/12/10 04:56:22;;;;;;;25.63;19.43;;;0.00;86.30;;;;;;4992524;28;20200;-89
2022/12/10 04:58:47;;;;;;;25.10;20.63;;;0.00;86.30;;;;;;4993685;28;20176;-89
2022/12/10 05:01:13;;;;;;;24.60;20.10;;;0.00;86.20;;;;;;4992513;28;20174;-89
2022/12/10 05:03:40;;;;;;;27.57;20.30;;;0.00;86.20;;;;;;4993953;28;20170;-89
2022/12/10 05:06:09;;;;;;;26.10;20.20;;;0.00;86.40;;;;;;4992359;28;20270;-89
2022/12/10 05:08:36;;;;;;;23.53;19.33;;;0.00;86.50;;;;;;4993603;28;20166;-89
2022/12/10 05:11:16;;;;;;;27.40;20.50;;;0.00;86.50;;;;;;4992359;28;20670;-88
2022/12/10 05:13:42;;;;;;;27.30;20.93;;;0.00;86.50;;;;;;4992424;28;20204;-89
2022/12/10 05:16:12;;;;;;;26.93;21.73;;;0.00;86.60;;;;;;4992310;28;20178;-89
2022/12/10 05:18:37;;;;;;;26.07;20.50;;;0.00;86.60;;;;;;4993433;28;20178;-89
2022/12/10 05:21:07;;;;;;;24.63;19.43;;;0.00;86.80;;;;;;4993736;28;20663;-89
2022/12/10 05:23:36;;;;;;;27.23;20.53;;;0.00;86.90;;;;;;4993449;28;20256;-89
2022/12/10 05:26:07;;;;;;;26.37;21.03;;;0.00;86.90;;;;;;4992191;28;20185;-89
2022/12/10 05:28:38;;;;;;;27.20;20.67;;;0.00;86.50;;;;;;4993420;28;20181;-89
2022/12/10 05:31:05;;;;;;;29.40;21.67;;;0.00;86.40;;;;;;4993454;28;20241;-89
2022/12/10 05:33:31;;;;;;;27.87;20.83;;;0.00;86.20;;;;;;4992152;28;20200;-89
2022/12/10 05:35:59;;;;;;;28.33;20.13;;;0.00;86.20;;;;;;4992137;28;20648;-89
2022/12/10 05:38:26;;;;;;;23.87;19.20;;;0.00;86.20;;;;;;4992075;28;20198;-89
2022/12/10 05:40:52;;;;;;;28.03;21.93;;;0.00;86.40;;;;;;4992153;28;20174;-89
2022/12/10 05:43:18;;;;;;;26.70;21.07;;;0.00;86.40;;;;;;4993371;28;20174;-89
2022/12/10 05:45:44;;;;;;;26.80;21.97;;;0.00;86.50;;;;;;4992095;28;20177;-89
2022/12/10 05:48:11;;;;;;;29.87;22.67;;;0.00;86.70;;;;;;4992371;28;20198;-89
2022/12/10 05:50:37;;;;;;;28.90;21.43;;;0.00;86.40;;;;;;4995657;28;20180;-88
2022/12/10 05:53:03;;;;;;;26.83;20.70;;;-0.10;86.10;;;;;;4995530;28;20220;-89
2022/12/10 05:55:29;;;;;;;25.10;20.40;;;0.00;86.30;;;;;;4996663;28;20228;-89
2022/12/10 05:57:55;;;;;;;30.17;22.73;;;0.00;86.40;;;;;;4996616;28;20304;-89
2022/12/10 06:00:23;;;;;;;29.70;21.37;;;0.00;86.50;;;;;;4995453;28;20173;-89
2022/12/10 06:02:49;;;;;;;23.27;18.90;;;0.00;86.70;;;;;;4996621;28;20176;-89
2022/12/10 06:05:15;;;;;;;25.60;20.30;;;-0.10;86.50;;;;;;4996514;28;20189;-89
2022/12/10 06:07:40;;;;;;;25.60;19.27;;;-0.10;85.80;;;;;;4996432;28;20197;-89
2022/12/10 06:10:06;;;;;;;25.03;18.03;;;-0.10;85.90;;;;;;4995259;28;20264;-89
2022/12/10 06:12:31;;;;;;;24.37;18.47;;;0.00;86.00;;;;;;4996331;28;20176;-89
2022/12/10 06:14:57;;;;;;;23.87;18.97;;;0.00;86.20;;;;;;4996297;28;20181;-89
2022/12/10 06:17:22;;;;;;;27.93;19.50;;;0.00;86.20;;;;;;4996323;28;20280;-89
2022/12/10 06:19:48;;;;;;;23.60;19.17;;;0.00;86.10;;;;;;4996284;28;20169;-88
2022/12/10 06:22:13;;;;;;;26.70;19.20;;;0.00;86.20;;;;;;4994950;28;20240;-89
2022/12/10 06:24:39;;;;;;;28.27;19.23;;;0.00;86.20;;;;;;4994903;28;20181;-89
2022/12/10 06:27:05;;;;;;;24.57;20.57;;;0.00;86.20;;;;;;4996078;28;20629;-89
2022/12/10 06:29:30;;;;;;;27.53;19.20;;;0.00;86.30;;;;;;4994875;28;20170;-89
2022/12/10 06:31:56;;;;;;;24.57;19.50;;;0.00;86.30;;;;;;4994747;28;20182;-89
2022/12/10 06:34:21;;;;;;;25.00;19.50;;;0.10;86.30;;;;;;4994677;28;20208;-88
2022/12/10 06:36:47;;;;;;;24.13;18.67;;;0.00;86.20;;;;;;4995358;28;20213;-89
2022/12/10 06:39:12;;;;;;;26.87;20.47;;;0.00;86.20;;;;;;4994645;28;20177;-89
2022/12/10 06:41:38;;;;;;;25.27;20.03;;;0.00;86.20;;;;;;4996371;28;20178;-89
2022/12/10 06:44:07;;;;;;;27.97;20.90;;;0.00;86.40;;;;;;4994525;28;20181;-89
2022/12/10 06:46:33;;;;;;;24.40;20.03;;;0.00;86.60;;;;;;4994503;28;20225;-89
2022/12/10 06:48:58;;;;;;;26.40;19.97;;;0.00;86.60;;;;;;4994582;28;20603;-89
2022/12/10 06:51:24;;;;;;;25.73;20.13;;;0.00;86.70;;;;;;4995601;28;20194;-89
2022/12/10 06:53:50;;;;;;;27.73;20.67;;;0.00;86.70;;;;;;4994306;28;20252;-89
2022/12/10 06:56:18;;;;;;;29.17;21.03;;;0.10;86.80;;;;;;4995525;28;20173;-89
2022/12/10 06:58:44;;;;;;;28.23;20.30;;;0.00;86.80;;;;;;4994613;28;20178;-89
2022/12/10 07:01:16;;;;;;;25.90;20.00;;;0.00;86.80;;;;;;4995119;28;20181;-89
2022/12/10 07:03:42;;;;;;;27.50;21.70;;;0.00;86.90;;;;;;4994211;28;20275;-89
2022/12/10 07:06:09;;;;;;;26.40;21.67;;;0.10;87.10;;;;;;4995321;28;20212;-89
2022/12/10 07:08:36;;;;;;;25.57;21.27;;;0.10;87.10;;;;;;4994290;28;20215;-88
2022/12/10 07:11:07;;;;;;;27.00;20.33;;;0.10;87.20;;;;;;4994172;28;20216;-89
2022/12/10 07:13:35;;;;;;;23.67;19.20;;;0.10;87.20;;;;;;4995311;28;20225;-89
2022/12/10 07:16:00;;;;;;;23.60;18.30;;;0.10;87.00;;;;;;4995184;28;20182;-89
2022/12/10 07:18:27;;;;;;;20.33;18.10;;;0.10;86.60;;;;;;4995333;28;20199;-89
2022/12/10 07:20:52;;;;;;;24.63;20.10;;;0.00;86.50;;;;;;4995169;28;20202;-89
2022/12/10 07:23:19;;;;;;;27.77;20.93;;;0.00;86.50;;;;;;4995028;28;20211;-89
2022/12/10 07:25:45;;;;;;;23.60;18.83;;;0.00;86.40;;;;;;4993780;28;20189;-89
2022/12/10 07:28:10;;;;;;;26.10;19.63;;;0.00;86.30;;;;;;4993612;28;20221;-89
2022/12/10 07:30:36;;;;;;;22.87;18.93;;;0.00;86.20;;;;;;4993723;28;20284;-89
2022/12/10 07:33:01;;;;;;;23.00;18.73;;;0.00;86.20;;;;;;4993915;28;20622;-89
2022/12/10 07:35:27;;;;;;;25.83;19.90;;;0.00;86.30;;;;;;4994832;28;20208;-89
2022/12/10 07:37:53;;;;;;;24.40;20.23;;;0.00;86.30;;;;;;4993444;28;20209;-88
2022/12/10 07:40:18;;;;;;;23.73;20.27;;;0.10;86.40;;;;;;4993736;28;20551;-87
2022/12/10 07:42:44;;;;;;;24.03;20.23;;;0.10;86.50;;;;;;4993620;28;20177;-88
2022/12/10 07:45:10;;;;;;;25.43;19.60;;;0.10;86.50;;;;;;4993620;28;20188;-90
2022/12/10 07:47:37;;;;;;;23.60;19.40;;;0.10;86.70;;;;;;4993525;28;20201;-88
2022/12/10 07:50:04;;;;;;;23.23;18.53;;;0.10;86.80;;;;;;4994556;28;20213;-89
2022/12/10 07:52:29;;;;;;;20.67;17.90;;;0.10;86.60;;;;;;4993573;28;20182;-89
2022/12/10 07:54:55;;;;;;;23.73;16.77;;;0.10;86.50;;;;;;4993614;28;20184;-89
2022/12/10 07:57:20;;;;;;;18.00;15.87;;;0.10;86.40;;;;;;4994349;28;20207;-89
2022/12/10 07:59:47;;;;;;;21.33;16.87;;;0.00;85.80;;;;;;4993265;28;20175;-87
2022/12/10 08:02:12;;;;;;;22.00;18.37;;;0.10;85.60;;;;;;4993437;28;20173;-89
2022/12/10 08:04:38;;;;;;;18.60;16.53;;;0.00;85.50;;;;;;4994418;28;20224;-88
2022/12/10 08:07:03;;;;;;;19.70;17.37;;;0.00;85.60;;;;;;4993033;28;20252;-88
2022/12/10 08:09:29;;;;;;;22.10;17.90;;;0.00;85.60;;;;;;4994221;28;20181;-89
2022/12/10 08:11:55;;;;;;;22.57;18.60;;;0.00;85.70;;;;;;4994028;28;20177;-88
2022/12/10 08:14:20;;;;;;;23.80;18.87;;;0.00;85.80;;;;;;4992802;28;20215;-88
2022/12/10 08:16:46;;;;;;;19.90;17.77;;;0.00;85.80;;;;;;4992886;28;20196;-88
2022/12/10 08:19:11;;;;;;;20.57;17.60;;;0.00;85.70;;;;;;4993739;28;20187;-88
2022/12/10 08:21:37;;;;;;;20.63;17.50;;;0.00;85.80;;;;;;4994450;28;20632;-88
2022/12/10 08:24:02;;;;;;;19.83;17.23;;;0.00;85.80;;;;;;4992836;28;20201;-88
2022/12/10 08:26:30;;;;;;;19.90;16.83;;;0.00;85.80;;;;;;4993892;28;20706;-88
2022/12/10 08:28:57;;;;;;;21.53;17.23;;;0.00;85.70;;;;;;4994075;28;20181;-88
2022/12/10 08:31:24;;;;;;;24.00;17.40;;;0.00;85.90;;;;;;4994255;28;20176;-88
2022/12/10 08:33:49;;;;;;;20.90;16.43;;;-0.10;86.00;;;;;;4992722;28;20295;-88
2022/12/10 08:36:17;;;;;;;23.73;18.40;;;-0.10;86.00;;;;;;4992591;28;20277;-88
2022/12/10 08:38:43;;;;;;;20.83;18.37;;;-0.10;86.20;;;;;;4994005;28;20170;-88
2022/12/10 08:41:12;;;;;;;21.63;17.00;;;-0.10;86.50;;;;;;4992628;28;20183;-88
2022/12/10 08:43:39;;;;;;;23.60;16.93;;;-0.10;86.70;;;;;;4992660;28;20679;-88
2022/12/10 08:46:05;;;;;;;19.10;14.77;;;-0.10;86.80;;;;;;4994004;28;20183;-88
2022/12/10 08:48:31;;;;;;;19.40;15.47;;;-0.10;86.80;;;;;;4992635;28;20180;-88
2022/12/10 08:50:57;;;;;;;20.60;15.47;;;-0.10;86.40;;;;;;4992560;28;20176;-88
2022/12/10 08:53:22;;;;;;;18.10;15.63;;;-0.10;86.10;;;;;;4992425;28;20208;-88
2022/12/10 08:55:53;;;;;;;21.23;16.10;;;0.00;86.00;;;;;;4993352;28;20171;-88
2022/12/10 08:58:19;;;;;;;20.73;16.77;;;-0.10;85.80;;;;;;4992775;28;20193;-88
2022/12/10 09:00:46;;;;;;;19.57;16.73;;;-0.10;85.90;;;;;;4993708;28;20177;-88
2022/12/10 09:03:12;;;;;;;21.00;17.37;;;0.00;86.00;;;;;;4993634;28;20169;-88
2022/12/10 09:05:38;;;;;;;18.57;16.00;;;0.00;86.00;;;;;;4992360;28;20697;-88
2022/12/10 09:08:04;;;;;;;19.60;17.50;;;0.00;86.00;;;;;;4992701;28;20205;-88
2022/12/10 09:10:29;;;;;;;19.97;17.77;;;0.00;86.10;;;;;;4993578;28;20177;-88
2022/12/10 09:12:55;;;;;;;21.60;18.53;;;0.00;86.10;;;;;;4992344;28;20199;-86
2022/12/10 09:15:21;;;;;;;20.27;17.87;;;0.00;86.20;;;;;;4993937;28;20263;-89
2022/12/10 09:17:46;;;;;;;23.80;19.17;;;0.10;86.30;;;;;;4993752;28;20216;-89
2022/12/10 09:20:12;;;;;;;23.60;18.87;;;0.10;86.40;;;;;;4993675;28;20190;-89
2022/12/10 09:22:38;;;;;;;26.23;19.57;;;0.10;86.60;;;;;;4992389;28;20173;-89
2022/12/10 09:25:06;;;;;;;25.87;19.93;;;0.20;86.90;;;;;;4995545;28;20200;-89
2022/12/10 09:27:32;;;;;;;24.77;19.40;;;0.10;86.90;;;;;;4996957;28;20272;-89
2022/12/10 09:29:57;;;;;;;23.30;18.47;;;0.20;87.00;;;;;;4995809;28;20209;-89
2022/12/10 09:32:23;;;;;;;24.53;17.97;;;0.10;87.10;;;;;;4996905;28;20208;-89
2022/12/10 09:34:52;;;;;;;23.83;18.80;;;0.10;87.10;;;;;;4996138;28;20185;-89
2022/12/10 09:37:18;;;;;;;27.90;19.10;;;0.10;87.20;;;;;;4995863;28;20205;-88
2022/12/10 09:39:43;;;;;;;28.87;20.70;;;0.10;87.30;;;;;;4996114;28;20192;-88
2022/12/10 09:42:50;;;;;;;23.90;18.67;;;0.10;87.20;;;;;;4996603;28;20200;-89
2022/12/10 09:45:32;;;;;;;26.23;19.37;;;0.10;87.50;;;;;;4987513;28;20558;-88
2022/12/10 09:47:58;;;;;;;24.60;20.10;;;0.10;87.60;;;;;;4996284;28;20271;-89
2022/12/10 09:50:31;;;;;;;22.80;18.63;;;0.10;87.60;;;;;;4995740;28;20557;-89
2022/12/10 09:52:59;;;;;;;28.23;20.53;;;0.10;87.80;;;;;;4995971;28;20214;-89
2022/12/10 09:55:39;;;;;;;22.73;19.20;;;0.10;87.90;;;;;;4995807;28;20554;-89
2022/12/10 09:58:09;;;;;;;22.93;18.07;;;0.10;87.90;;;;;;4996145;28;20295;-88
2022/12/10 10:00:40;;;;;;;26.30;20.83;;;0.10;87.80;;;;;;4996861;28;20172;-89
2022/12/10 10:03:06;;;;;;;25.60;20.07;;;0.10;87.50;;;;;;4995632;28;20184;-89
2022/12/10 10:05:49;;;;;;;30.97;22.47;;;0.10;87.50;;;;;;4996898;28;20183;-86
2022/12/10 10:08:21;;;;;;;25.30;19.77;;;0.00;87.50;;;;;;4996700;28;20208;-86
2022/12/10 10:10:47;;;;;;;24.73;20.13;;;0.10;87.70;;;;;;4996665;28;20679;-89
2022/12/10 10:13:28;;;;;;;24.43;19.43;;;0.10;87.70;;;;;;4996613;28;20205;-90
2022/12/10 10:15:54;;;;;;;27.57;19.27;;;0.10;87.80;;;;;;4996644;28;20168;-88
2022/12/10 10:18:29;;;;;;;25.97;19.73;;;0.10;87.80;;;;;;4995375;28;20201;-89
2022/12/10 10:20:55;;;;;;;24.77;19.67;;;0.10;87.70;;;;;;4995098;28;20254;-89
2022/12/10 10:23:21;;;;;;;26.43;20.30;;;0.10;87.80;;;;;;4996298;28;20271;-89
2022/12/10 10:25:46;;;;;;;21.90;19.03;;;0.10;87.70;;;;;;4996498;28;20217;-90
2022/12/10 10:28:20;;;;;;;23.80;19.63;;;0.10;87.50;;;;;;4994704;28;20225;-90
2022/12/10 10:30:45;;;;;;;23.07;18.87;;;0.20;87.60;;;;;;4994903;28;20237;-90
2022/12/10 10:33:14;;;;;;;22.13;17.33;;;0.20;87.60;;;;;;4995279;28;20217;-90
2022/12/10 10:35:53;;;;;;;23.37;18.50;;;0.20;87.60;;;;;;4995076;28;20230;-90
2022/12/10 10:38:28;;;;;;;26.53;20.43;;;0.10;87.60;;;;;;4994811;28;20205;-89
2022/12/10 10:41:03;;;;;;;20.33;17.77;;;0.10;87.70;;;;;;4995963;28;20240;-90
2022/12/10 10:43:39;;;;;;;24.20;19.27;;;0.20;87.70;;;;;;4995864;28;20681;-90
2022/12/10 10:46:12;;;;;;;26.87;19.33;;;0.10;87.60;;;;;;4994424;28;20642;-90
2022/12/10 10:48:38;;;;;;;26.17;18.23;;;0.10;87.80;;;;;;4995882;28;20188;-90
2022/12/10 10:51:15;;;;;;;21.37;17.07;;;0.10;87.90;;;;;;4994561;28;20233;-90
2022/12/10 10:53:50;;;;;;;22.00;18.13;;;0.10;88.00;;;;;;4994324;28;20201;-90
2022/12/10 10:56:20;;;;;;;24.57;17.67;;;0.10;87.90;;;;;;4995288;28;20169;-90
2022/12/10 10:59:06;;;;;;;21.13;17.23;;;0.10;87.90;;;;;;4994404;28;20312;-89
2022/12/10 11:01:51;;;;;;;20.70;17.07;;;0.20;87.90;;;;;;4995605;28;20190;-90
2022/12/10 11:04:21;;;;;;;20.23;16.63;;;0.10;87.90;;;;;;4994213;28;20182;-90
2022/12/10 11:06:49;;;;;;;20.33;16.23;;;0.10;88.00;;;;;;4994259;28;20232;-89
2022/12/10 11:09:24;;;;;;;21.67;17.10;;;0.10;88.00;;;;;;4994077;28;20676;-90
2022/12/10 11:11:56;;;;;;;18.63;14.70;;;0.10;88.00;;;;;;4995355;28;20515;-90
2022/12/10 11:14:29;;;;;;;22.70;15.87;;;0.10;87.90;;;;;;4994057;28;20194;-89
2022/12/10 11:17:10;;;;;;;20.33;15.93;;;0.00;87.80;;;;;;4994259;28;20284;-92
2022/12/10 11:19:45;;;;;;;20.90;16.43;;;0.00;87.90;;;;;;4994288;28;20207;-92
2022/12/10 11:22:22;;;;;;;22.13;16.60;;;0.00;87.80;;;;;;4995806;28;20161;-90
2022/12/10 11:24:48;;;;;;;21.07;16.33;;;0.00;87.80;;;;;;4993993;28;20175;-91
2022/12/10 11:27:29;;;;;;;21.00;16.57;;;0.00;87.90;;;;;;4993861;28;20692;-91
2022/12/10 11:30:19;;;;;;;23.73;18.40;;;0.00;88.00;;;;;;4993874;28;20170;-91
2022/12/10 11:33:18;;;;;;;21.63;17.73;;;0.00;87.90;;;;;;4996509;28;20154;-90
2022/12/10 11:36:19;;;;;;;24.13;18.40;;;0.00;88.00;;;;;;4997766;28;20192;-94
2022/12/10 11:41:44;;;;;;;25.47;18.43;;;0.00;87.80;;;;;;5033437;23;20588;-90
2022/12/10 11:44:24;;;;;;;29.43;21.97;;;0.00;87.90;;;;;;5014375;28;20528;-91
2022/12/10 11:47:00;;;;;;;27.13;20.80;;;0.00;88.00;;;;;;5014620;28;20243;-86
2022/12/10 11:49:32;;;;;;;24.17;17.00;;;0.00;88.00;;;;;;5014400;28;20264;-90
2022/12/10 11:52:16;;;;;;;25.87;17.50;;;0.10;87.90;;;;;;5012992;28;20191;-90
2022/12/10 11:54:56;;;;;;;22.53;16.87;;;0.00;87.80;;;;;;5012949;28;20215;-90
2022/12/10 11:57:28;;;;;;;19.33;16.53;;;0.00;87.70;;;;;;5013397;28;20281;-90
2022/12/10 12:00:13;;;;;;;18.97;16.30;;;0.00;87.70;;;;;;5012871;28;20183;-90
2022/12/10 12:03:00;;;;;;;17.60;15.70;;;0.00;87.50;;;;;;5015135;28;20370;-90
2022/12/10 12:05:50;;;;;;;19.23;16.33;;;0.00;87.40;;;;;;5012883;28;20178;-90
2022/12/10 12:08:30;;;;;;;22.43;18.03;;;0.00;87.30;;;;;;5013901;28;20199;-90
2022/12/10 12:11:34;;;;;;;23.80;18.00;;;0.00;87.40;;;;;;5012738;28;20175;-90
2022/12/10 12:14:18;;;;;;;18.87;16.80;;;0.00;87.30;;;;;;5013782;28;20217;-90
2022/12/10 12:17:02;;;;;;;19.83;15.67;;;0.10;87.40;;;;;;5012462;28;20204;-90
2022/12/10 12:19:36;;;;;;;18.07;16.07;;;0.00;87.40;;;;;;5013840;28;20169;-90
2022/12/10 12:22:13;;;;;;;20.97;15.97;;;0.00;87.30;;;;;;5012358;28;20172;-90
2022/12/10 12:24:41;;;;;;;20.90;16.27;;;0.00;87.30;;;;;;5012348;28;20198;-90
2022/12/10 12:27:16;;;;;;;19.80;16.67;;;0.00;87.30;;;;;;5012401;28;20274;-90
2022/12/10 12:29:46;;;;;;;16.83;14.77;;;0.00;87.30;;;;;;5012404;28;20263;-90
2022/12/10 12:32:28;;;;;;;16.80;14.67;;;0.00;87.00;;;;;;5013708;28;20169;-90
2022/12/10 12:35:16;;;;;;;17.53;14.93;;;0.00;86.60;;;;;;5013283;28;20254;-90
2022/12/10 12:37:50;;;;;;;17.33;15.40;;;0.00;86.30;;;;;;5012388;28;20255;-90
2022/12/10 12:40:35;;;;;;;25.20;17.57;;;0.00;86.00;;;;;;5012126;28;20203;-90
2022/12/10 12:43:12;;;;;;;18.77;16.00;;;0.00;86.00;;;;;;5012618;28;20172;-90
2022/12/10 12:45:46;;;;;;;19.93;16.10;;;0.00;86.10;;;;;;5012130;28;20187;-91
2022/12/10 12:48:39;;;;;;;20.57;17.07;;;0.00;86.20;;;;;;5011975;28;20203;-90
2022/12/10 12:51:18;;;;;;;20.13;16.77;;;0.00;86.10;;;;;;5012191;28;20176;-90
2022/12/10 12:53:44;;;;;;;18.00;14.87;;;0.00;86.20;;;;;;5012083;28;20608;-90
2022/12/10 12:56:29;;;;;;;16.67;14.10;;;0.00;86.30;;;;;;5012470;28;20177;-91
2022/12/10 12:59:16;;;;;;;14.30;12.73;;;0.00;86.00;;;;;;5014692;28;20184;-90